sensor_id;sensor_type;location;lat;lon;timestamp;temperature;humidity
72202;SHT30;60105;54.956;73.412;2023-04-01T00:03:01;-2.15;55.72
72202;SHT30;60105;54.956;73.412;2023-04-01T00:06:03;-2.25;56.44
72202;SHT30;60105;54.956;73.412;2023-04-01T00:09:04;-2.22;56.23
72202;SHT30;60105;54.956;73.412;2023-04-01T00:12:05;-2.22;56.77
72202;SHT30;60105;54.956;73.412;2023-04-01T00:15:08;-2.28;56.30
72202;SHT30;60105;54.956;73.412;2023-04-01T00:18:52;-2.24;57.15
72202;SHT30;60105;54.956;73.412;2023-04-01T00:21:54;-2.35;57.02
72202;SHT30;60105;54.956;73.412;2023-04-01T00:24:55;-2.28;57.15
72202;SHT30;60105;54.956;73.412;2023-04-01T00:27:56;-2.21;56.98
72202;SHT30;60105;54.956;73.412;2023-04-01T00:30:57;-2.27;56.82
72202;SHT30;60105;54.956;73.412;2023-04-01T00:33:59;-2.27;57.64
72202;SHT30;60105;54.956;73.412;2023-04-01T00:37:10;-2.24;57.45
72202;SHT30;60105;54.956;73.412;2023-04-01T00:40:30;-2.28;57.74
72202;SHT30;60105;54.956;73.412;2023-04-01T00:43:52;-2.30;57.63
72202;SHT30;60105;54.956;73.412;2023-04-01T00:46:54;-2.31;57.89
72202;SHT30;60105;54.956;73.412;2023-04-01T00:49:55;-2.35;57.68
72202;SHT30;60105;54.956;73.412;2023-04-01T00:52:58;-2.32;57.93
72202;SHT30;60105;54.956;73.412;2023-04-01T00:56:13;-2.30;58.00
72202;SHT30;60105;54.956;73.412;2023-04-01T00:59:21;-2.34;58.17
72202;SHT30;60105;54.956;73.412;2023-04-01T01:02:29;-2.25;57.84
72202;SHT30;60105;54.956;73.412;2023-04-01T01:09:18;-2.35;57.91
72202;SHT30;60105;54.956;73.412;2023-04-01T01:12:46;-2.30;58.02
72202;SHT30;60105;54.956;73.412;2023-04-01T01:15:53;-2.21;58.01
72202;SHT30;60105;54.956;73.412;2023-04-01T01:25:42;-2.28;57.34
72202;SHT30;60105;54.956;73.412;2023-04-01T01:29:05;-2.34;57.88
72202;SHT30;60105;54.956;73.412;2023-04-01T01:32:35;-2.30;58.14
72202;SHT30;60105;54.956;73.412;2023-04-01T01:35:50;-2.20;58.51
72202;SHT30;60105;54.956;73.412;2023-04-01T01:39:04;-2.18;58.26
72202;SHT30;60105;54.956;73.412;2023-04-01T01:42:11;-2.20;58.50
72202;SHT30;60105;54.956;73.412;2023-04-01T01:45:15;-2.03;57.98
72202;SHT30;60105;54.956;73.412;2023-04-01T01:48:53;-1.93;57.54
72202;SHT30;60105;54.956;73.412;2023-04-01T01:51:55;-1.93;57.47
72202;SHT30;60105;54.956;73.412;2023-04-01T01:54:58;-1.87;57.16
72202;SHT30;60105;54.956;73.412;2023-04-01T01:59:02;-1.83;56.93
72202;SHT30;60105;54.956;73.412;2023-04-01T02:02:05;-1.77;57.62
72202;SHT30;60105;54.956;73.412;2023-04-01T02:05:11;-1.67;57.26
72202;SHT30;60105;54.956;73.412;2023-04-01T02:08:25;-1.63;57.23
72202;SHT30;60105;54.956;73.412;2023-04-01T02:11:45;-1.55;57.07
72202;SHT30;60105;54.956;73.412;2023-04-01T02:14:56;-1.62;57.10
72202;SHT30;60105;54.956;73.412;2023-04-01T02:17:58;-1.59;57.01
72202;SHT30;60105;54.956;73.412;2023-04-01T02:21:00;-1.62;56.90
72202;SHT30;60105;54.956;73.412;2023-04-01T02:24:06;-1.62;57.51
72202;SHT30;60105;54.956;73.412;2023-04-01T02:27:14;-1.52;56.90
72202;SHT30;60105;54.956;73.412;2023-04-01T02:30:17;-1.53;56.53
72202;SHT30;60105;54.956;73.412;2023-04-01T02:33:53;-1.53;56.69
72202;SHT30;60105;54.956;73.412;2023-04-01T02:36:55;-1.45;56.19
72202;SHT30;60105;54.956;73.412;2023-04-01T02:40:03;-1.45;56.57
72202;SHT30;60105;54.956;73.412;2023-04-01T02:43:07;-1.39;56.62
72202;SHT30;60105;54.956;73.412;2023-04-01T02:46:08;-1.24;56.21
72202;SHT30;60105;54.956;73.412;2023-04-01T02:49:10;-1.11;55.75
72202;SHT30;60105;54.956;73.412;2023-04-01T02:52:11;-1.19;55.47
72202;SHT30;60105;54.956;73.412;2023-04-01T02:55:13;-1.09;55.63
72202;SHT30;60105;54.956;73.412;2023-04-01T02:58:53;-1.08;55.74
72202;SHT30;60105;54.956;73.412;2023-04-01T03:01:55;-1.09;55.22
72202;SHT30;60105;54.956;73.412;2023-04-01T03:04:56;-0.94;55.56
72202;SHT30;60105;54.956;73.412;2023-04-01T03:07:57;-0.83;55.38
72202;SHT30;60105;54.956;73.412;2023-04-01T03:10:59;-0.98;55.58
72202;SHT30;60105;54.956;73.412;2023-04-01T03:14:00;-1.01;55.98
72202;SHT30;60105;54.956;73.412;2023-04-01T03:17:02;-0.84;55.80
72202;SHT30;60105;54.956;73.412;2023-04-01T03:20:03;-0.81;55.71
72202;SHT30;60105;54.956;73.412;2023-04-01T03:23:06;-0.83;55.93
72202;SHT30;60105;54.956;73.412;2023-04-01T03:26:08;-0.66;55.60
72202;SHT30;60105;54.956;73.412;2023-04-01T03:29:10;-0.59;56.15
72202;SHT30;60105;54.956;73.412;2023-04-01T03:32:14;-0.52;55.37
72202;SHT30;60105;54.956;73.412;2023-04-01T03:35:26;-0.66;55.95
72202;SHT30;60105;54.956;73.412;2023-04-01T03:38:28;-0.54;56.56
72202;SHT30;60105;54.956;73.412;2023-04-01T03:41:39;-0.59;55.43
72202;SHT30;60105;54.956;73.412;2023-04-01T03:44:50;-0.50;55.62
72202;SHT30;60105;54.956;73.412;2023-04-01T03:48:01;-0.39;56.21
72202;SHT30;60105;54.956;73.412;2023-04-01T03:51:07;-0.29;56.02
72202;SHT30;60105;54.956;73.412;2023-04-01T03:54:14;-0.22;55.78
72202;SHT30;60105;54.956;73.412;2023-04-01T03:57:16;-0.18;55.83
72202;SHT30;60105;54.956;73.412;2023-04-01T04:00:18;-0.16;56.49
72202;SHT30;60105;54.956;73.412;2023-04-01T04:03:52;-0.01;55.52
72202;SHT30;60105;54.956;73.412;2023-04-01T04:06:54;0.13;56.06
72202;SHT30;60105;54.956;73.412;2023-04-01T04:09:57;0.20;54.86
72202;SHT30;60105;54.956;73.412;2023-04-01T04:12:58;0.20;55.36
72202;SHT30;60105;54.956;73.412;2023-04-01T04:16:03;0.27;54.41
72202;SHT30;60105;54.956;73.412;2023-04-01T04:19:10;0.50;54.20
72202;SHT30;60105;54.956;73.412;2023-04-01T04:22:17;0.56;54.05
72202;SHT30;60105;54.956;73.412;2023-04-01T04:25:28;0.64;53.22
72202;SHT30;60105;54.956;73.412;2023-04-01T04:28:53;0.68;52.28
72202;SHT30;60105;54.956;73.412;2023-04-01T04:31:54;0.80;52.28
72202;SHT30;60105;54.956;73.412;2023-04-01T04:34:56;0.77;52.21
72202;SHT30;60105;54.956;73.412;2023-04-01T04:37:59;0.80;51.25
72202;SHT30;60105;54.956;73.412;2023-04-01T04:41:00;0.83;51.53
72202;SHT30;60105;54.956;73.412;2023-04-01T04:44:02;0.83;52.07
72202;SHT30;60105;54.956;73.412;2023-04-01T04:47:03;1.01;51.58
72202;SHT30;60105;54.956;73.412;2023-04-01T04:50:07;1.18;51.57
72202;SHT30;60105;54.956;73.412;2023-04-01T04:53:52;1.09;50.88
72202;SHT30;60105;54.956;73.412;2023-04-01T04:57:01;1.16;50.67
72202;SHT30;60105;54.956;73.412;2023-04-01T05:00:08;1.21;50.25
72202;SHT30;60105;54.956;73.412;2023-04-01T05:03:52;1.33;50.07
72202;SHT30;60105;54.956;73.412;2023-04-01T05:06:54;1.28;50.72
72202;SHT30;60105;54.956;73.412;2023-04-01T05:09:55;1.19;49.91
72202;SHT30;60105;54.956;73.412;2023-04-01T05:12:56;1.21;50.53
72202;SHT30;60105;54.956;73.412;2023-04-01T05:15:58;1.33;51.46
72202;SHT30;60105;54.956;73.412;2023-04-01T05:19:00;1.42;51.86
72202;SHT30;60105;54.956;73.412;2023-04-01T05:22:01;1.40;50.85
72202;SHT30;60105;54.956;73.412;2023-04-01T05:25:04;1.54;51.55
72202;SHT30;60105;54.956;73.412;2023-04-01T05:28:05;1.73;51.23
72202;SHT30;60105;54.956;73.412;2023-04-01T05:31:07;1.93;49.34
72202;SHT30;60105;54.956;73.412;2023-04-01T05:34:20;1.88;50.53
72202;SHT30;60105;54.956;73.412;2023-04-01T05:37:22;1.95;50.25
72202;SHT30;60105;54.956;73.412;2023-04-01T05:40:24;2.07;49.42
72202;SHT30;60105;54.956;73.412;2023-04-01T05:43:52;2.07;49.25
72202;SHT30;60105;54.956;73.412;2023-04-01T05:47:21;2.12;49.65
72202;SHT30;60105;54.956;73.412;2023-04-01T05:50:23;2.11;49.27
72202;SHT30;60105;54.956;73.412;2023-04-01T05:53:52;2.10;50.41
72202;SHT30;60105;54.956;73.412;2023-04-01T05:56:54;2.18;50.66
72202;SHT30;60105;54.956;73.412;2023-04-01T05:59:55;2.18;51.79
72202;SHT30;60105;54.956;73.412;2023-04-01T06:03:00;2.43;51.17
72202;SHT30;60105;54.956;73.412;2023-04-01T06:06:02;2.55;52.07
72202;SHT30;60105;54.956;73.412;2023-04-01T06:09:16;2.64;52.38
72202;SHT30;60105;54.956;73.412;2023-04-01T06:12:40;2.75;51.99
72202;SHT30;60105;54.956;73.412;2023-04-01T06:23:41;2.92;51.44
72202;SHT30;60105;54.956;73.412;2023-04-01T06:30:33;2.97;51.97
72202;SHT30;60105;54.956;73.412;2023-04-01T06:48:00;3.03;51.43
72202;SHT30;60105;54.956;73.412;2023-04-01T06:59:05;3.22;50.06
72202;SHT30;60105;54.956;73.412;2023-04-01T07:02:16;3.20;51.03
72202;SHT30;60105;54.956;73.412;2023-04-01T07:05:20;3.34;50.83
72202;SHT30;60105;54.956;73.412;2023-04-01T07:08:27;3.38;50.03
72202;SHT30;60105;54.956;73.412;2023-04-01T07:11:34;3.35;49.83
72202;SHT30;60105;54.956;73.412;2023-04-01T07:14:56;3.59;50.06
72202;SHT30;60105;54.956;73.412;2023-04-01T07:22:39;3.63;51.68
72202;SHT30;60105;54.956;73.412;2023-04-01T07:26:21;3.63;50.58
72202;SHT30;60105;54.956;73.412;2023-04-01T07:29:44;3.65;50.15
72202;SHT30;60105;54.956;73.412;2023-04-01T07:33:13;3.80;50.58
72202;SHT30;60105;54.956;73.412;2023-04-01T07:50:34;3.56;49.47
72202;SHT30;60105;54.956;73.412;2023-04-01T07:54:02;3.58;50.24
72202;SHT30;60105;54.956;73.412;2023-04-01T08:00:36;3.96;48.59
72202;SHT30;60105;54.956;73.412;2023-04-01T08:07:21;3.94;48.35
72202;SHT30;60105;54.956;73.412;2023-04-01T08:22:14;3.54;49.76
72202;SHT30;60105;54.956;73.412;2023-04-01T08:25:21;3.73;47.77
72202;SHT30;60105;54.956;73.412;2023-04-01T08:28:58;3.79;47.80
72202;SHT30;60105;54.956;73.412;2023-04-01T08:32:11;3.80;48.46
72202;SHT30;60105;54.956;73.412;2023-04-01T08:35:15;3.94;48.00
72202;SHT30;60105;54.956;73.412;2023-04-01T09:07:46;3.89;49.91
72202;SHT30;60105;54.956;73.412;2023-04-01T09:21:24;3.59;48.40
72202;SHT30;60105;54.956;73.412;2023-04-01T09:24:56;3.63;49.03
72202;SHT30;60105;54.956;73.412;2023-04-01T09:31:16;3.71;49.45
72202;SHT30;60105;54.956;73.412;2023-04-01T09:34:57;3.78;50.13
72202;SHT30;60105;54.956;73.412;2023-04-01T09:38:22;3.93;48.51
72202;SHT30;60105;54.956;73.412;2023-04-01T09:41:35;3.96;48.93
72202;SHT30;60105;54.956;73.412;2023-04-01T09:52:14;3.86;50.00
72202;SHT30;60105;54.956;73.412;2023-04-01T09:59:02;4.00;48.98
72202;SHT30;60105;54.956;73.412;2023-04-01T10:13:09;3.76;49.65
72202;SHT30;60105;54.956;73.412;2023-04-01T10:31:44;3.75;51.80
72202;SHT30;60105;54.956;73.412;2023-04-01T11:00:30;3.79;49.82
72202;SHT30;60105;54.956;73.412;2023-04-01T11:17:33;3.76;50.80
72202;SHT30;60105;54.956;73.412;2023-04-01T11:21:07;3.80;52.45
72202;SHT30;60105;54.956;73.412;2023-04-01T11:31:11;3.83;52.11
72202;SHT30;60105;54.956;73.412;2023-04-01T11:41:49;3.66;52.75
72202;SHT30;60105;54.956;73.412;2023-04-01T11:45:36;3.62;52.87
72202;SHT30;60105;54.956;73.412;2023-04-01T11:49:00;3.58;53.13
72202;SHT30;60105;54.956;73.412;2023-04-01T11:59:51;3.51;52.93
72202;SHT30;60105;54.956;73.412;2023-04-01T12:06:18;3.31;55.03
72202;SHT30;60105;54.956;73.412;2023-04-01T12:19:32;3.05;53.16
72202;SHT30;60105;54.956;73.412;2023-04-01T12:23:02;3.20;54.86
72202;SHT30;60105;54.956;73.412;2023-04-01T12:53:35;2.57;55.88
72202;SHT30;60105;54.956;73.412;2023-04-01T13:04:29;2.38;56.75
72202;SHT30;60105;54.956;73.412;2023-04-01T13:07:59;2.42;57.52
72202;SHT30;60105;54.956;73.412;2023-04-01T13:11:13;2.08;57.60
72202;SHT30;60105;54.956;73.412;2023-04-01T13:21:03;2.04;58.40
72202;SHT30;60105;54.956;73.412;2023-04-01T13:24:36;1.97;59.07
72202;SHT30;60105;54.956;73.412;2023-04-01T13:27:43;1.81;59.04
72202;SHT30;60105;54.956;73.412;2023-04-01T13:41:13;1.75;60.29
72202;SHT30;60105;54.956;73.412;2023-04-01T13:44:28;1.68;60.12
72202;SHT30;60105;54.956;73.412;2023-04-01T14:02:21;1.52;60.71
72202;SHT30;60105;54.956;73.412;2023-04-01T14:15:42;1.14;61.70
72202;SHT30;60105;54.956;73.412;2023-04-01T14:22:25;1.04;62.35
72202;SHT30;60105;54.956;73.412;2023-04-01T14:29:23;0.99;62.41
72202;SHT30;60105;54.956;73.412;2023-04-01T14:54:33;0.73;62.13
72202;SHT30;60105;54.956;73.412;2023-04-01T14:57:36;0.84;61.52
72202;SHT30;60105;54.956;73.412;2023-04-01T15:14:17;0.84;60.54
72202;SHT30;60105;54.956;73.412;2023-04-01T15:24:26;0.78;60.73
72202;SHT30;60105;54.956;73.412;2023-04-01T15:31:15;0.71;60.69
72202;SHT30;60105;54.956;73.412;2023-04-01T15:37:56;0.65;60.57
72202;SHT30;60105;54.956;73.412;2023-04-01T15:41:46;0.67;59.81
72202;SHT30;60105;54.956;73.412;2023-04-01T15:48:24;0.63;60.14
72202;SHT30;60105;54.956;73.412;2023-04-01T16:04:51;0.68;59.48
72202;SHT30;60105;54.956;73.412;2023-04-01T16:08:37;0.53;59.75
72202;SHT30;60105;54.956;73.412;2023-04-01T16:12:30;0.61;59.94
72202;SHT30;60105;54.956;73.412;2023-04-01T16:15:43;0.64;59.47
72202;SHT30;60105;54.956;73.412;2023-04-01T16:22:30;0.63;59.75
72202;SHT30;60105;54.956;73.412;2023-04-01T16:25:46;0.67;59.48
72202;SHT30;60105;54.956;73.412;2023-04-01T16:29:30;0.56;59.95
72202;SHT30;60105;54.956;73.412;2023-04-01T16:32:53;0.52;60.15
72202;SHT30;60105;54.956;73.412;2023-04-01T16:39:18;0.56;60.00
72202;SHT30;60105;54.956;73.412;2023-04-01T16:49:56;0.56;60.29
72202;SHT30;60105;54.956;73.412;2023-04-01T16:53:17;0.43;60.80
72202;SHT30;60105;54.956;73.412;2023-04-01T16:56:24;0.46;60.77
72202;SHT30;60105;54.956;73.412;2023-04-01T16:59:45;0.46;60.62
72202;SHT30;60105;54.956;73.412;2023-04-01T17:03:16;0.37;60.70
72202;SHT30;60105;54.956;73.412;2023-04-01T17:06:53;0.19;61.52
72202;SHT30;60105;54.956;73.412;2023-04-01T17:13:56;0.22;61.78
72202;SHT30;60105;54.956;73.412;2023-04-01T17:20:40;0.33;61.06
72202;SHT30;60105;54.956;73.412;2023-04-01T17:23:53;0.42;61.04
72202;SHT30;60105;54.956;73.412;2023-04-01T17:41:01;0.33;61.43
72202;SHT30;60105;54.956;73.412;2023-04-01T17:57:46;0.06;62.25
72202;SHT30;60105;54.956;73.412;2023-04-01T18:04:15;0.01;62.01
72202;SHT30;60105;54.956;73.412;2023-04-01T18:14:45;-0.01;61.67
72202;SHT30;60105;54.956;73.412;2023-04-01T18:21:36;-0.18;62.07
72202;SHT30;60105;54.956;73.412;2023-04-01T18:28:14;-0.14;61.81
72202;SHT30;60105;54.956;73.412;2023-04-01T18:31:36;-0.18;61.82
72202;SHT30;60105;54.956;73.412;2023-04-01T18:34:58;-0.19;61.98
72202;SHT30;60105;54.956;73.412;2023-04-01T18:44:43;-0.19;61.56
72202;SHT30;60105;54.956;73.412;2023-04-01T18:48:29;-0.32;62.05
72202;SHT30;60105;54.956;73.412;2023-04-01T18:51:46;-0.25;61.62
72202;SHT30;60105;54.956;73.412;2023-04-01T19:02:34;-0.29;61.38
72202;SHT30;60105;54.956;73.412;2023-04-01T19:05:40;-0.23;61.17
72202;SHT30;60105;54.956;73.412;2023-04-01T19:08:42;-0.30;61.22
72202;SHT30;60105;54.956;73.412;2023-04-01T19:11:56;-0.33;61.41
72202;SHT30;60105;54.956;73.412;2023-04-01T19:25:58;-0.36;61.23
72202;SHT30;60105;54.956;73.412;2023-04-01T19:29:06;-0.45;61.45
72202;SHT30;60105;54.956;73.412;2023-04-01T19:46:14;-0.52;62.28
72202;SHT30;60105;54.956;73.412;2023-04-01T19:49:36;-0.59;62.53
72202;SHT30;60105;54.956;73.412;2023-04-01T19:52:41;-0.62;62.51
72202;SHT30;60105;54.956;73.412;2023-04-01T19:56:05;-0.67;62.50
72202;SHT30;60105;54.956;73.412;2023-04-01T20:02:58;-0.66;63.04
72202;SHT30;60105;54.956;73.412;2023-04-01T20:16:14;-0.66;63.30
72202;SHT30;60105;54.956;73.412;2023-04-01T20:19:41;-0.69;63.46
72202;SHT30;60105;54.956;73.412;2023-04-01T20:29:04;-0.83;63.54
72202;SHT30;60105;54.956;73.412;2023-04-01T20:32:35;-0.81;63.62
72202;SHT30;60105;54.956;73.412;2023-04-01T20:43:23;-0.90;63.73
72202;SHT30;60105;54.956;73.412;2023-04-01T20:57:21;-0.98;64.42
72202;SHT30;60105;54.956;73.412;2023-04-01T21:00:41;-1.12;64.44
72202;SHT30;60105;54.956;73.412;2023-04-01T21:04:07;-1.18;64.90
72202;SHT30;60105;54.956;73.412;2023-04-01T21:07:37;-1.16;65.18
72202;SHT30;60105;54.956;73.412;2023-04-01T21:35:21;-1.19;65.02
72202;SHT30;60105;54.956;73.412;2023-04-01T21:52:44;-1.41;65.79
72202;SHT30;60105;54.956;73.412;2023-04-01T22:06:37;-1.51;66.07
72202;SHT30;60105;54.956;73.412;2023-04-01T22:09:55;-1.51;66.14
72202;SHT30;60105;54.956;73.412;2023-04-01T22:19:36;-1.59;66.31
72202;SHT30;60105;54.956;73.412;2023-04-01T22:26:28;-1.58;66.05
72202;SHT30;60105;54.956;73.412;2023-04-01T22:29:38;-1.62;65.92
72202;SHT30;60105;54.956;73.412;2023-04-01T22:32:49;-1.70;66.12
72202;SHT30;60105;54.956;73.412;2023-04-01T22:39:37;-1.72;66.34
72202;SHT30;60105;54.956;73.412;2023-04-01T22:42:59;-1.70;66.60
72202;SHT30;60105;54.956;73.412;2023-04-01T22:49:32;-1.72;66.51
72202;SHT30;60105;54.956;73.412;2023-04-01T22:52:43;-1.70;66.15
72202;SHT30;60105;54.956;73.412;2023-04-01T22:56:01;-1.77;66.31
72202;SHT30;60105;54.956;73.412;2023-04-01T22:59:31;-1.84;66.38
72202;SHT30;60105;54.956;73.412;2023-04-01T23:06:19;-1.76;66.33
72202;SHT30;60105;54.956;73.412;2023-04-01T23:09:34;-1.83;66.35
72202;SHT30;60105;54.956;73.412;2023-04-01T23:12:41;-1.79;66.16
72202;SHT30;60105;54.956;73.412;2023-04-01T23:15:51;-1.82;66.10
72202;SHT30;60105;54.956;73.412;2023-04-01T23:25:55;-1.79;65.86
72202;SHT30;60105;54.956;73.412;2023-04-01T23:28:58;-1.80;65.97
72202;SHT30;60105;54.956;73.412;2023-04-01T23:32:03;-1.82;65.53
72202;SHT30;60105;54.956;73.412;2023-04-01T23:35:15;-1.83;65.54
72202;SHT30;60105;54.956;73.412;2023-04-01T23:38:23;-1.90;65.89
72202;SHT30;60105;54.956;73.412;2023-04-01T23:41:28;-1.93;65.97
72202;SHT30;60105;54.956;73.412;2023-04-01T23:44:35;-2.03;66.16
72202;SHT30;60105;54.956;73.412;2023-04-01T23:47:38;-2.00;66.19
72202;SHT30;60105;54.956;73.412;2023-04-01T23:50:41;-2.03;66.27
72202;SHT30;60105;54.956;73.412;2023-04-01T23:54:11;-2.05;66.18
72202;SHT30;60105;54.956;73.412;2023-04-01T23:57:23;-2.00;66.31
